Time;durP1;ratioP1;P1;durP2;ratioP2;P2;SDS_P1;SDS_P2;PMS_P1;PMS_P2;Temp;Humidity;BMP_temperature;BMP_pressure;BME280_temperature;BME280_humidity;BME280_pressure;Samples;Min_cycle;Max_cycle;Signal;HPM_P1;HPM_P2
2023/10/11 00:00:41;;;;;;;9.80;4.82;;;;;;;;;;4826926;29;20299;-31
2023/10/11 00:05:55;;;;;;;9.88;4.18;;;;;;;;;;4826486;29;20212;-31
2023/10/11 00:08:26;;;;;;;8.02;4.75;;;;;;;;;;4826609;29;20292;-30
2023/10/11 00:10:57;;;;;;;9.45;4.70;;;;;;;;;;4826695;29;20212;-29
2023/10/11 00:13:33;;;;;;;8.98;4.80;;;;;;;;;;4826660;29;20212;-31
2023/10/11 00:16:07;;;;;;;8.05;4.60;;;;;;;;;;4826773;29;20208;-31
2023/10/11 00:18:38;;;;;;;10.98;5.07;;;;;;;;;;4826617;29;20220;-29
2023/10/11 00:21:10;;;;;;;12.10;5.22;;;;;;;;;;4826715;29;20209;-30
2023/10/11 00:23:41;;;;;;;9.23;4.55;;;;;;;;;;4826319;29;20268;-32
2023/10/11 00:26:08;;;;;;;9.88;4.93;;;;;;;;;;4826565;29;20279;-30
2023/10/11 00:28:38;;;;;;;12.90;5.60;;;;;;;;;;4826184;29;20231;-30
2023/10/11 00:31:16;;;;;;;10.88;4.65;;;;;;;;;;4826152;29;20294;-31
2023/10/11 00:33:45;;;;;;;9.05;4.43;;;;;;;;;;4839555;29;20211;-29
2023/10/11 00:36:15;;;;;;;10.63;5.03;;;;;;;;;;4826041;29;20621;-31
2023/10/11 00:38:47;;;;;;;8.40;4.80;;;;;;;;;;4853979;29;20208;-30
2023/10/11 00:41:17;;;;;;;8.88;4.57;;;;;;;;;;4840183;29;20215;-31
2023/10/11 00:43:54;;;;;;;10.43;4.50;;;;;;;;;;4826191;29;20196;-32
2023/10/11 00:46:25;;;;;;;8.93;4.47;;;;;;;;;;4840600;29;20211;-33
2023/10/11 00:48:59;;;;;;;7.60;4.57;;;;;;;;;;4825863;29;20268;-30
2023/10/11 00:51:31;;;;;;;8.90;4.35;;;;;;;;;;4839010;29;20238;-32
2023/10/11 00:54:00;;;;;;;11.98;5.60;;;;;;;;;;4840166;29;20212;-31
2023/10/11 00:56:31;;;;;;;12.40;5.32;;;;;;;;;;4825842;29;20248;-30
2023/10/11 00:59:01;;;;;;;12.25;5.22;;;;;;;;;;4839976;29;20220;-30
2023/10/11 01:01:28;;;;;;;8.73;4.78;;;;;;;;;;4824633;29;20239;-30
2023/10/11 01:03:56;;;;;;;9.55;5.05;;;;;;;;;;4825650;29;20220;-32
2023/10/11 01:06:25;;;;;;;8.68;4.90;;;;;;;;;;4839590;29;20214;-30
2023/10/11 01:08:53;;;;;;;9.55;4.75;;;;;;;;;;4825615;29;20248;-30
2023/10/11 01:11:21;;;;;;;8.43;4.85;;;;;;;;;;4825895;29;20211;-31
2023/10/11 01:13:52;;;;;;;7.50;4.50;;;;;;;;;;4839529;29;20211;-29
2023/10/11 01:16:25;;;;;;;9.07;4.90;;;;;;;;;;4825890;29;20210;-29
2023/10/11 01:18:53;;;;;;;10.68;4.88;;;;;;;;;;4826125;29;20204;-31
2023/10/11 01:21:20;;;;;;;10.65;4.35;;;;;;;;;;4839553;29;20700;-31
2023/10/11 01:23:48;;;;;;;9.77;4.88;;;;;;;;;;4825606;29;20237;-33
2023/10/11 01:26:15;;;;;;;9.90;5.00;;;;;;;;;;4825329;29;20208;-31
2023/10/11 01:28:48;;;;;;;9.52;4.85;;;;;;;;;;4825201;29;20236;-32
2023/10/11 01:31:17;;;;;;;9.85;4.68;;;;;;;;;;4825251;29;20201;-31
2023/10/11 01:33:48;;;;;;;13.15;4.78;;;;;;;;;;4825237;29;20221;-31
2023/10/11 01:36:23;;;;;;;11.82;5.28;;;;;;;;;;4825514;29;20200;-32
2023/10/11 01:38:50;;;;;;;10.05;5.45;;;;;;;;;;4825190;29;20204;-31
2023/10/11 01:41:28;;;;;;;11.38;4.97;;;;;;;;;;4839009;29;20255;-31
2023/10/11 01:43:56;;;;;;;9.98;5.18;;;;;;;;;;4839406;29;20295;-30
2023/10/11 01:46:26;;;;;;;8.90;4.97;;;;;;;;;;4824657;29;20208;-29
2023/10/11 01:48:55;;;;;;;10.55;4.47;;;;;;;;;;4825133;29;20236;-31
2023/10/11 01:51:26;;;;;;;11.18;4.97;;;;;;;;;;4825256;29;20212;-30
2023/10/11 01:54:04;;;;;;;9.32;4.88;;;;;;;;;;4824967;29;20219;-30
2023/10/11 01:56:31;;;;;;;8.05;4.55;;;;;;;;;;4824954;29;20239;-31
2023/10/11 01:59:00;;;;;;;9.23;4.97;;;;;;;;;;4838829;29;20566;-32
2023/10/11 02:01:30;;;;;;;9.93;4.75;;;;;;;;;;4838950;29;20208;-30
2023/10/11 02:03:59;;;;;;;8.95;4.93;;;;;;;;;;4825135;29;20215;-30
2023/10/11 02:06:39;;;;;;;10.20;5.47;;;;;;;;;;4824711;29;20237;-31
2023/10/11 02:09:08;;;;;;;10.07;4.97;;;;;;;;;;4824792;29;20233;-30
2023/10/11 02:11:36;;;;;;;13.20;5.80;;;;;;;;;;4838734;29;20210;-32
2023/10/11 02:14:03;;;;;;;11.27;5.10;;;;;;;;;;4824933;29;20220;-31
2023/10/11 02:16:31;;;;;;;11.63;5.15;;;;;;;;;;4838521;29;20670;-30
2023/10/11 02:18:59;;;;;;;9.05;5.40;;;;;;;;;;4824813;29;20238;-30
2023/10/11 02:21:29;;;;;;;8.73;4.82;;;;;;;;;;4824884;29;20538;-30
2023/10/11 02:23:58;;;;;;;9.75;5.28;;;;;;;;;;4824935;29;20681;-30
2023/10/11 02:26:34;;;;;;;12.07;5.40;;;;;;;;;;4824506;29;20212;-30
2023/10/11 02:29:15;;;;;;;10.60;5.40;;;;;;;;;;4824450;29;20721;-34
2023/10/11 02:31:43;;;;;;;9.98;4.95;;;;;;;;;;4824484;29;20204;-29
2023/10/11 02:34:13;;;;;;;10.93;5.32;;;;;;;;;;4824480;29;20698;-30
2023/10/11 02:36:42;;;;;;;8.70;4.97;;;;;;;;;;4824994;29;20218;-30
2023/10/11 02:39:20;;;;;;;10.02;5.00;;;;;;;;;;4824684;29;20220;-32
2023/10/11 02:41:57;;;;;;;8.88;5.13;;;;;;;;;;4824412;29;20717;-31
2023/10/11 02:44:26;;;;;;;8.55;4.93;;;;;;;;;;4824969;29;20215;-31
2023/10/11 02:46:53;;;;;;;12.77;5.40;;;;;;;;;;4824494;29;20243;-30
2023/10/11 02:49:21;;;;;;;11.13;5.07;;;;;;;;;;4838181;29;20718;-30
2023/10/11 02:52:05;;;;;;;12.18;5.20;;;;;;;;;;4824373;29;20215;-30
2023/10/11 02:54:34;;;;;;;10.20;4.88;;;;;;;;;;4838404;29;20192;-30
2023/10/11 02:57:05;;;;;;;6.22;4.40;;;;;;;;;;4826599;29;20244;-29
2023/10/11 02:59:36;;;;;;;10.48;5.35;;;;;;;;;;4827700;29;20680;-33
2023/10/11 03:02:05;;;;;;;11.45;5.18;;;;;;;;;;4841842;29;20215;-29
2023/10/11 03:04:39;;;;;;;9.48;5.40;;;;;;;;;;4841691;29;20208;-30
2023/10/11 03:07:12;;;;;;;7.32;4.72;;;;;;;;;;4841723;29;20211;-30
2023/10/11 03:09:42;;;;;;;11.15;5.85;;;;;;;;;;4841584;29;20224;-31
2023/10/11 03:12:30;;;;;;;8.00;5.07;;;;;;;;;;4841751;29;20246;-31
2023/10/11 03:15:06;;;;;;;9.48;5.75;;;;;;;;;;4841732;29;20284;-30
2023/10/11 03:17:40;;;;;;;9.60;4.90;;;;;;;;;;4841928;29;20204;-31
2023/10/11 03:22:53;;;;;;;12.88;4.68;;;;;;;;;;4827804;29;20204;-31
2023/10/11 03:25:21;;;;;;;9.98;5.18;;;;;;;;;;4827741;29;20215;-31
2023/10/11 03:27:49;;;;;;;10.80;5.22;;;;;;;;;;4827016;29;20231;-31
2023/10/11 03:30:19;;;;;;;8.00;4.72;;;;;;;;;;4827059;29;20208;-31
2023/10/11 03:32:47;;;;;;;11.45;4.85;;;;;;;;;;4827228;29;20204;-30
2023/10/11 03:35:18;;;;;;;9.70;5.22;;;;;;;;;;4827118;29;20208;-29
2023/10/11 03:37:58;;;;;;;11.77;4.78;;;;;;;;;;4826980;29;20223;-31
2023/10/11 03:40:34;;;;;;;8.88;4.93;;;;;;;;;;4825978;29;20220;-30
2023/10/11 03:43:17;;;;;;;9.88;4.88;;;;;;;;;;4825087;29;20200;-31
2023/10/11 03:45:51;;;;;;;10.98;5.60;;;;;;;;;;4826750;29;20557;-31
2023/10/11 03:48:27;;;;;;;8.65;4.78;;;;;;;;;;4824769;29;20220;-32
2023/10/11 03:50:55;;;;;;;11.25;5.10;;;;;;;;;;4826838;29;20204;-32
2023/10/11 03:53:23;;;;;;;10.00;4.95;;;;;;;;;;4826861;29;20216;-33
2023/10/11 03:55:53;;;;;;;9.52;5.25;;;;;;;;;;4826534;29;20239;-31
2023/10/11 03:58:38;;;;;;;11.20;5.00;;;;;;;;;;4826550;29;20302;-31
2023/10/11 04:01:13;;;;;;;10.77;4.88;;;;;;;;;;4826623;29;20204;-31
2023/10/11 04:03:41;;;;;;;9.38;4.95;;;;;;;;;;4827003;29;20211;-31
2023/10/11 04:06:34;;;;;;;11.70;5.30;;;;;;;;;;4826735;29;20219;-31
2023/10/11 04:09:02;;;;;;;9.75;5.47;;;;;;;;;;4825709;29;20572;-30
2023/10/11 04:14:39;;;;;;;8.65;4.57;;;;;;;;;;4825754;29;20232;-30
2023/10/11 04:17:10;;;;;;;9.13;4.65;;;;;;;;;;4825014;29;20240;-32
2023/10/11 04:19:40;;;;;;;9.30;5.13;;;;;;;;;;4827273;29;20256;-31
2023/10/11 04:22:16;;;;;;;9.85;5.32;;;;;;;;;;4843639;29;20239;-30
2023/10/11 04:24:45;;;;;;;11.73;6.07;;;;;;;;;;4828601;29;20223;-30
2023/10/11 04:29:50;;;;;;;11.80;5.18;;;;;;;;;;4825027;29;20251;-30
2023/10/11 04:35:36;;;;;;;10.93;5.63;;;;;;;;;;4825458;29;20232;-30
2023/10/11 04:38:04;;;;;;;13.77;6.00;;;;;;;;;;4825171;29;20313;-32
2023/10/11 04:43:08;;;;;;;10.10;5.03;;;;;;;;;;4832941;29;20228;-31
2023/10/11 04:45:44;;;;;;;10.98;5.38;;;;;;;;;;4832696;29;21343;-30
2023/10/11 04:48:30;;;;;;;7.97;4.45;;;;;;;;;;4830858;29;20705;-32
2023/10/11 04:51:04;;;;;;;10.00;5.28;;;;;;;;;;4825095;29;20600;-30
2023/10/11 04:53:47;;;;;;;12.43;5.60;;;;;;;;;;4824178;29;20621;-31
2023/10/11 04:59:06;;;;;;;13.15;5.43;;;;;;;;;;4824098;29;20240;-33
2023/10/11 05:01:58;;;;;;;11.10;5.55;;;;;;;;;;4824162;29;20574;-33
2023/10/11 05:04:32;;;;;;;9.95;5.47;;;;;;;;;;4824273;29;20227;-31
2023/10/11 05:07:09;;;;;;;9.40;5.03;;;;;;;;;;4824294;29;20755;-32
2023/10/11 05:09:38;;;;;;;12.23;5.25;;;;;;;;;;4824235;29;20599;-33
2023/10/11 05:14:59;;;;;;;12.35;5.63;;;;;;;;;;4825543;29;20216;-33
2023/10/11 05:22:49;;;;;;;12.60;5.28;;;;;;;;;;4840138;29;20204;-33
2023/10/11 05:28:26;;;;;;;11.70;5.35;;;;;;;;;;4824692;29;20236;-33
2023/10/11 05:31:06;;;;;;;8.95;5.05;;;;;;;;;;4824943;29;20352;-34
2023/10/11 05:52:55;;;;;;;11.65;5.55;;;;;;;;;;4825354;29;20268;-31
2023/10/11 05:55:23;;;;;;;12.25;5.32;;;;;;;;;;4824840;29;20766;-32
2023/10/11 05:57:50;;;;;;;11.02;5.07;;;;;;;;;;4825039;29;20219;-30
2023/10/11 06:00:23;;;;;;;11.65;5.63;;;;;;;;;;4824886;29;20239;-30
2023/10/11 06:02:52;;;;;;;13.48;5.93;;;;;;;;;;4825146;29;20234;-31
2023/10/11 06:05:23;;;;;;;12.32;5.18;;;;;;;;;;4824950;29;20208;-31
2023/10/11 06:08:00;;;;;;;11.40;4.70;;;;;;;;;;4824855;29;20248;-32
2023/10/11 06:10:35;;;;;;;9.98;5.10;;;;;;;;;;4824855;29;20704;-31
2023/10/11 06:13:07;;;;;;;14.20;5.38;;;;;;;;;;4825056;29;20211;-32
2023/10/11 06:15:35;;;;;;;9.75;5.35;;;;;;;;;;4825435;29;20279;-31
2023/10/11 06:18:05;;;;;;;10.63;5.13;;;;;;;;;;4824701;29;20590;-31
2023/10/11 06:20:38;;;;;;;11.88;5.60;;;;;;;;;;4824677;29;20665;-31
2023/10/11 06:23:06;;;;;;;12.77;5.97;;;;;;;;;;4825000;29;20207;-31
2023/10/11 06:25:51;;;;;;;8.30;4.80;;;;;;;;;;4825013;29;20303;-31
2023/10/11 06:28:18;;;;;;;12.90;5.68;;;;;;;;;;4824790;29;20215;-34
2023/10/11 06:30:49;;;;;;;14.07;5.18;;;;;;;;;;4825581;29;20223;-31
2023/10/11 06:33:21;;;;;;;12.65;5.57;;;;;;;;;;4830486;29;20211;-31
2023/10/11 06:35:53;;;;;;;12.20;5.15;;;;;;;;;;4830910;29;20219;-30
2023/10/11 06:38:21;;;;;;;13.38;5.68;;;;;;;;;;4830672;29;20219;-32
2023/10/11 06:41:36;;;;;;;15.52;5.53;;;;;;;;;;4830857;29;20295;-33
2023/10/11 06:43:41;;;;;;;8.88;5.18;;;;;;;;;;4830174;29;20249;-31
2023/10/11 06:46:08;;;;;;;11.23;5.50;;;;;;;;;;4830578;29;20212;-31
2023/10/11 06:48:36;;;;;;;10.20;5.45;;;;;;;;;;4830171;29;20238;-31
2023/10/11 06:51:03;;;;;;;13.70;5.32;;;;;;;;;;4830426;29;20228;-30
2023/10/11 06:53:33;;;;;;;16.98;6.22;;;;;;;;;;4830434;29;20219;-33
2023/10/11 06:56:00;;;;;;;11.93;5.40;;;;;;;;;;4830342;29;20248;-31
2023/10/11 06:58:27;;;;;;;11.27;5.63;;;;;;;;;;4830188;29;20319;-30
2023/10/11 07:00:54;;;;;;;9.18;4.85;;;;;;;;;;4830613;29;20214;-31
2023/10/11 07:06:10;;;;;;;10.77;4.90;;;;;;;;;;4830537;29;20211;-30
2023/10/11 07:08:49;;;;;;;13.55;5.50;;;;;;;;;;4830122;29;20216;-30
2023/10/11 07:11:50;;;;;;;14.05;6.10;;;;;;;;;;4830129;29;20685;-31
2023/10/11 07:14:18;;;;;;;12.68;6.22;;;;;;;;;;4830329;29;20212;-31
2023/10/11 07:16:46;;;;;;;16.63;6.45;;;;;;;;;;4830079;29;20250;-31
2023/10/11 07:19:15;;;;;;;16.55;6.38;;;;;;;;;;4830070;29;20708;-31
2023/10/11 07:24:19;;;;;;;9.98;5.47;;;;;;;;;;4830246;29;20276;-30
2023/10/11 07:29:16;;;;;;;13.90;6.13;;;;;;;;;;4830027;29;20243;-30
2023/10/11 07:31:49;;;;;;;11.95;5.70;;;;;;;;;;4829957;29;20211;-34
2023/10/11 07:34:22;;;;;;;12.57;5.75;;;;;;;;;;4829991;29;20216;-31
2023/10/11 07:36:49;;;;;;;10.32;5.50;;;;;;;;;;4830182;29;20211;-33
2023/10/11 07:39:25;;;;;;;13.15;5.95;;;;;;;;;;4829903;29;20674;-32
2023/10/11 07:42:06;;;;;;;10.90;5.82;;;;;;;;;;4829841;29;20215;-30
2023/10/11 07:44:38;;;;;;;12.13;6.07;;;;;;;;;;4826228;29;20197;-32
2023/10/11 07:47:07;;;;;;;11.13;6.53;;;;;;;;;;4827147;29;20239;-33
2023/10/11 07:49:40;;;;;;;13.68;6.20;;;;;;;;;;4826915;29;20739;-31
2023/10/11 07:52:09;;;;;;;13.13;6.45;;;;;;;;;;4841031;29;20208;-31
2023/10/11 07:54:39;;;;;;;14.15;6.40;;;;;;;;;;4826748;29;20543;-31
2023/10/11 07:57:14;;;;;;;18.25;6.38;;;;;;;;;;4827083;29;20240;-31
2023/10/11 07:59:42;;;;;;;14.80;7.32;;;;;;;;;;4827034;29;20220;-31
2023/10/11 08:02:26;;;;;;;12.35;6.15;;;;;;;;;;4826633;29;20295;-31
2023/10/11 08:04:55;;;;;;;15.07;7.15;;;;;;;;;;4826361;29;20201;-32
2023/10/11 08:07:23;;;;;;;15.43;6.90;;;;;;;;;;4826806;29;20208;-31
2023/10/11 08:09:55;;;;;;;13.00;6.80;;;;;;;;;;4840599;29;20649;-32
2023/10/11 08:12:23;;;;;;;13.40;6.68;;;;;;;;;;4826356;29;20216;-30
2023/10/11 08:14:56;;;;;;;12.68;6.38;;;;;;;;;;4826819;29;20215;-31
2023/10/11 08:17:29;;;;;;;13.98;6.93;;;;;;;;;;4826389;29;20213;-32
2023/10/11 08:19:59;;;;;;;10.52;6.25;;;;;;;;;;4826481;29;20669;-31
2023/10/11 08:22:27;;;;;;;14.73;6.57;;;;;;;;;;4840536;29;20713;-31
2023/10/11 08:24:59;;;;;;;18.75;7.28;;;;;;;;;;4826265;29;20712;-31
2023/10/11 08:27:29;;;;;;;13.18;6.57;;;;;;;;;;4826264;29;20200;-30
2023/10/11 08:32:45;;;;;;;9.80;5.85;;;;;;;;;;4826113;29;20232;-32
2023/10/11 08:35:23;;;;;;;10.32;6.05;;;;;;;;;;4839767;29;20677;-31
2023/10/11 08:37:52;;;;;;;12.25;6.55;;;;;;;;;;4826566;29;20561;-31
2023/10/11 08:40:22;;;;;;;12.65;5.88;;;;;;;;;;4826054;29;20277;-31
2023/10/11 08:42:51;;;;;;;11.55;6.88;;;;;;;;;;4826306;29;20219;-31
2023/10/11 08:45:28;;;;;;;15.80;7.65;;;;;;;;;;4826290;29;20220;-33
2023/10/11 08:47:57;;;;;;;12.13;6.70;;;;;;;;;;4826365;29;20196;-30
2023/10/11 08:50:31;;;;;;;14.35;7.88;;;;;;;;;;4826052;29;20617;-31
2023/10/11 08:53:01;;;;;;;15.15;8.20;;;;;;;;;;4825985;29;20897;-30
2023/10/11 08:55:29;;;;;;;12.02;6.57;;;;;;;;;;4825682;29;20232;-33
2023/10/11 08:57:56;;;;;;;12.60;6.50;;;;;;;;;;4825825;29;20216;-31
2023/10/11 09:00:29;;;;;;;15.00;7.38;;;;;;;;;;4826103;29;20230;-30
2023/10/11 09:02:58;;;;;;;11.95;6.85;;;;;;;;;;4824737;29;20227;-32
2023/10/11 09:05:42;;;;;;;11.98;6.75;;;;;;;;;;4853819;29;20669;-32
2023/10/11 09:08:22;;;;;;;12.55;7.00;;;;;;;;;;4825924;29;20612;-31
2023/10/11 09:10:51;;;;;;;13.95;6.97;;;;;;;;;;4825955;29;20296;-30
2023/10/11 09:13:26;;;;;;;11.75;7.32;;;;;;;;;;4825464;29;20269;-30
2023/10/11 09:15:56;;;;;;;13.70;7.15;;;;;;;;;;4825585;29;20212;-31
2023/10/11 09:18:34;;;;;;;12.82;6.78;;;;;;;;;;4826032;29;20204;-31
2023/10/11 09:21:15;;;;;;;12.88;7.20;;;;;;;;;;4825647;29;20219;-31
2023/10/11 09:23:47;;;;;;;14.95;7.32;;;;;;;;;;4825742;29;20734;-30
2023/10/11 09:26:21;;;;;;;14.25;8.10;;;;;;;;;;4825386;29;20208;-31
2023/10/11 09:28:57;;;;;;;14.98;8.00;;;;;;;;;;4838626;29;20212;-32
2023/10/11 09:31:26;;;;;;;13.63;7.35;;;;;;;;;;4825351;29;20218;-31
2023/10/11 09:33:57;;;;;;;14.52;7.20;;;;;;;;;;4825643;29;20603;-31
2023/10/11 09:36:25;;;;;;;14.70;7.82;;;;;;;;;;4825267;29;20268;-32
2023/10/11 09:38:55;;;;;;;14.52;8.18;;;;;;;;;;4825371;29;20208;-30
2023/10/11 09:41:28;;;;;;;12.27;7.57;;;;;;;;;;4825529;29;20188;-30
2023/10/11 09:43:59;;;;;;;20.98;9.38;;;;;;;;;;4825453;29;20236;-31
2023/10/11 09:46:30;;;;;;;13.07;8.13;;;;;;;;;;4825124;29;20216;-31
2023/10/11 09:49:03;;;;;;;11.90;7.97;;;;;;;;;;4825105;29;20307;-31
2023/10/11 09:51:31;;;;;;;15.40;8.93;;;;;;;;;;4825019;29;20204;-30
2023/10/11 09:54:05;;;;;;;13.68;8.25;;;;;;;;;;4825486;29;20214;-30
2023/10/11 09:56:53;;;;;;;12.65;7.00;;;;;;;;;;4824850;29;20247;-30
2023/10/11 09:59:47;;;;;;;10.48;7.03;;;;;;;;;;4838669;29;20212;-31
2023/10/11 10:02:30;;;;;;;12.00;7.07;;;;;;;;;;4824963;29;20560;-31
2023/10/11 10:04:58;;;;;;;13.20;7.65;;;;;;;;;;4823930;29;20215;-34
2023/10/11 10:07:42;;;;;;;14.35;7.32;;;;;;;;;;4824137;29;20212;-31
2023/10/11 10:10:15;;;;;;;16.02;7.20;;;;;;;;;;4824066;29;20232;-31
2023/10/11 10:12:55;;;;;;;11.98;6.85;;;;;;;;;;4824865;29;20216;-32
2023/10/11 10:15:23;;;;;;;13.05;8.05;;;;;;;;;;4824882;29;20212;-30
2023/10/11 10:17:56;;;;;;;11.82;7.30;;;;;;;;;;4823793;29;20216;-31
2023/10/11 10:20:43;;;;;;;10.43;6.85;;;;;;;;;;4824802;29;20298;-31
2023/10/11 10:23:14;;;;;;;13.88;6.00;;;;;;;;;;4825084;29;20204;-32
2023/10/11 10:25:46;;;;;;;11.60;6.60;;;;;;;;;;4825123;29;20208;-32
2023/10/11 10:28:45;;;;;;;11.98;5.93;;;;;;;;;;4824813;29;20208;-32
2023/10/11 10:31:16;;;;;;;14.95;7.57;;;;;;;;;;4824812;29;20240;-31
2023/10/11 10:33:50;;;;;;;13.38;6.78;;;;;;;;;;4825039;29;20262;-31
2023/10/11 10:36:17;;;;;;;11.88;7.05;;;;;;;;;;4824664;29;20295;-31
2023/10/11 10:39:00;;;;;;;12.65;6.85;;;;;;;;;;4824191;29;20211;-31
2023/10/11 10:41:30;;;;;;;13.85;7.07;;;;;;;;;;4824761;29;20204;-32
2023/10/11 10:44:11;;;;;;;12.40;6.35;;;;;;;;;;4824684;29;20192;-31
2023/10/11 10:46:49;;;;;;;10.65;6.57;;;;;;;;;;4824618;29;20234;-31
2023/10/11 10:49:19;;;;;;;9.43;6.40;;;;;;;;;;4824643;29;20199;-31
2023/10/11 10:51:51;;;;;;;16.58;7.57;;;;;;;;;;4824547;29;20219;-31
2023/10/11 10:54:22;;;;;;;11.23;6.63;;;;;;;;;;4824617;29;20573;-31
2023/10/11 10:56:53;;;;;;;16.13;6.30;;;;;;;;;;4824441;29;20653;-31
2023/10/11 10:59:21;;;;;;;10.48;5.90;;;;;;;;;;4824301;29;20212;-31
2023/10/11 11:01:50;;;;;;;10.93;6.18;;;;;;;;;;4824466;29;20212;-31
2023/10/11 11:04:22;;;;;;;12.07;5.93;;;;;;;;;;4824144;29;20746;-31
2023/10/11 11:06:52;;;;;;;10.73;6.35;;;;;;;;;;4824602;29;20215;-31
2023/10/11 11:09:25;;;;;;;10.75;6.28;;;;;;;;;;4824390;29;20212;-30
2023/10/11 11:11:57;;;;;;;10.73;5.95;;;;;;;;;;4824131;29;20245;-32
2023/10/11 11:14:25;;;;;;;9.60;5.22;;;;;;;;;;4824310;29;20196;-31
2023/10/11 11:16:56;;;;;;;13.07;6.63;;;;;;;;;;4824465;29;20215;-30
2023/10/11 11:19:27;;;;;;;15.35;6.82;;;;;;;;;;4827396;29;20197;-31
2023/10/11 11:22:15;;;;;;;7.22;4.78;;;;;;;;;;4841230;29;20239;-31
2023/10/11 11:24:43;;;;;;;8.23;5.72;;;;;;;;;;4827586;29;20216;-31
2023/10/11 11:27:25;;;;;;;10.77;5.18;;;;;;;;;;4827171;29;20224;-32
2023/10/11 11:29:53;;;;;;;9.93;5.50;;;;;;;;;;4827069;29;20285;-31
2023/10/11 11:32:41;;;;;;;11.77;5.68;;;;;;;;;;4827059;29;20673;-32
2023/10/11 11:38:02;;;;;;;10.55;5.50;;;;;;;;;;4827282;29;20257;-31
2023/10/11 11:40:47;;;;;;;11.30;6.13;;;;;;;;;;4826735;29;20196;-32
2023/10/11 11:43:19;;;;;;;9.85;5.63;;;;;;;;;;4826586;29;20223;-33
2023/10/11 11:45:51;;;;;;;14.25;5.50;;;;;;;;;;4826378;29;20196;-31
2023/10/11 11:48:23;;;;;;;12.45;6.07;;;;;;;;;;4826734;29;20192;-31
2023/10/11 11:50:56;;;;;;;14.07;5.63;;;;;;;;;;4826311;29;20235;-31
2023/10/11 11:53:25;;;;;;;12.88;6.13;;;;;;;;;;4826688;29;20201;-31
2023/10/11 11:55:53;;;;;;;12.52;5.82;;;;;;;;;;4825979;29;20331;-31
2023/10/11 11:58:20;;;;;;;8.65;5.28;;;;;;;;;;4826195;29;20204;-30
2023/10/11 12:03:54;;;;;;;12.48;5.45;;;;;;;;;;4823752;29;20697;-32
2023/10/11 12:06:22;;;;;;;12.35;5.30;;;;;;;;;;4823973;29;20207;-33
2023/10/11 12:09:00;;;;;;;7.97;4.60;;;;;;;;;;4823989;29;20666;-31
2023/10/11 12:11:29;;;;;;;10.88;5.25;;;;;;;;;;4824014;29;20656;-31
2023/10/11 12:14:03;;;;;;;7.95;4.97;;;;;;;;;;4824019;29;20200;-32
2023/10/11 12:16:31;;;;;;;8.50;5.00;;;;;;;;;;4823950;29;20210;-31
2023/10/11 12:19:01;;;;;;;12.88;5.40;;;;;;;;;;4823811;29;20734;-32
2023/10/11 12:21:33;;;;;;;10.77;5.18;;;;;;;;;;4823839;29;20211;-31
2023/10/11 12:24:01;;;;;;;10.60;5.32;;;;;;;;;;4823761;29;20200;-31
2023/10/11 12:26:33;;;;;;;9.90;5.03;;;;;;;;;;4823693;29;20197;-31
2023/10/11 12:29:04;;;;;;;12.82;5.85;;;;;;;;;;4823211;29;20196;-32
2023/10/11 12:31:31;;;;;;;9.80;5.35;;;;;;;;;;4823590;29;20251;-32
2023/10/11 12:33:58;;;;;;;7.03;4.65;;;;;;;;;;4825260;29;20291;-33
2023/10/11 12:36:28;;;;;;;10.35;5.30;;;;;;;;;;4823006;29;20204;-34
2023/10/11 12:38:57;;;;;;;9.30;5.85;;;;;;;;;;4821274;29;20328;-35
2023/10/11 12:41:25;;;;;;;11.57;4.93;;;;;;;;;;4827017;29;20236;-32
2023/10/11 12:43:52;;;;;;;11.80;5.97;;;;;;;;;;4825730;29;20238;-33
2023/10/11 12:46:19;;;;;;;11.73;5.30;;;;;;;;;;4825660;29;20224;-32
2023/10/11 12:48:54;;;;;;;8.32;5.13;;;;;;;;;;4824308;29;20232;-34
2023/10/11 12:51:24;;;;;;;8.55;5.18;;;;;;;;;;4824419;29;20232;-30
2023/10/11 12:53:54;;;;;;;9.02;5.30;;;;;;;;;;4824037;29;20698;-34
2023/10/11 12:56:26;;;;;;;11.30;5.38;;;;;;;;;;4824928;29;20275;-31
2023/10/11 12:58:54;;;;;;;14.70;5.30;;;;;;;;;;4827513;29;20224;-31
2023/10/11 13:01:40;;;;;;;9.05;4.63;;;;;;;;;;4823709;29;20239;-31
2023/10/11 13:04:10;;;;;;;11.25;5.38;;;;;;;;;;4829462;29;20252;-34
2023/10/11 13:06:39;;;;;;;11.02;5.82;;;;;;;;;;4826855;29;20224;-31
2023/10/11 13:09:16;;;;;;;8.48;4.80;;;;;;;;;;4825767;29;20267;-33
2023/10/11 13:11:47;;;;;;;12.50;5.18;;;;;;;;;;4832468;29;20635;-31
2023/10/11 13:14:21;;;;;;;15.80;5.97;;;;;;;;;;4824553;29;20232;-31
2023/10/11 13:16:54;;;;;;;8.68;5.53;;;;;;;;;;4824254;29;20219;-31
2023/10/11 13:19:24;;;;;;;9.90;5.57;;;;;;;;;;4824217;29;20236;-34
2023/10/11 13:21:54;;;;;;;13.30;5.32;;;;;;;;;;4822147;29;20227;-27
2023/10/11 13:24:25;;;;;;;11.18;5.68;;;;;;;;;;4822766;29;20293;-31
2023/10/11 13:26:54;;;;;;;10.60;4.90;;;;;;;;;;4824160;29;20252;-27
2023/10/11 13:29:22;;;;;;;8.68;4.65;;;;;;;;;;4824127;29;20228;-30
2023/10/11 13:31:59;;;;;;;9.48;4.90;;;;;;;;;;4823917;29;20232;-28
2023/10/11 13:34:33;;;;;;;13.13;5.15;;;;;;;;;;4824103;29;20234;-28
2023/10/11 13:37:03;;;;;;;11.60;4.63;;;;;;;;;;4823436;29;20717;-30
2023/10/11 13:39:45;;;;;;;8.80;4.65;;;;;;;;;;4823841;29;20624;-36
2023/10/11 13:42:15;;;;;;;7.00;4.30;;;;;;;;;;4823208;29;20232;-42
2023/10/11 13:44:43;;;;;;;8.98;4.35;;;;;;;;;;4823455;29;20323;-43
2023/10/11 13:47:11;;;;;;;9.60;4.47;;;;;;;;;;4824180;29;20239;-37
2023/10/11 13:49:39;;;;;;;10.10;4.38;;;;;;;;;;4823457;29;20291;-38
2023/10/11 13:52:11;;;;;;;12.15;5.03;;;;;;;;;;4823454;29;20236;-37
2023/10/11 13:57:17;;;;;;;7.65;4.30;;;;;;;;;;4821243;29;20235;-40
2023/10/11 13:59:46;;;;;;;8.45;4.80;;;;;;;;;;4823348;29;20224;-39
2023/10/11 14:05:12;;;;;;;7.63;4.35;;;;;;;;;;4823658;29;20774;-47
2023/10/11 14:10:27;;;;;;;13.63;4.05;;;;;;;;;;4823858;29;20228;-41
2023/10/11 14:13:07;;;;;;;11.15;4.72;;;;;;;;;;4823896;29;20239;-39
2023/10/11 14:15:35;;;;;;;8.15;3.80;;;;;;;;;;4823445;29;20699;-48
2023/10/11 14:18:04;;;;;;;12.40;4.15;;;;;;;;;;4823310;29;20232;-39
2023/10/11 14:20:31;;;;;;;7.28;3.97;;;;;;;;;;4822917;29;20292;-42
2023/10/11 14:23:04;;;;;;;11.75;4.65;;;;;;;;;;4823439;29;20220;-41
2023/10/11 14:25:32;;;;;;;8.55;4.32;;;;;;;;;;4823438;29;20280;-35
2023/10/11 14:28:00;;;;;;;11.00;3.97;;;;;;;;;;4823586;29;20255;-38
2023/10/11 14:30:27;;;;;;;6.90;3.75;;;;;;;;;;4824011;29;20590;-40
2023/10/11 14:32:54;;;;;;;17.73;7.90;;;;;;;;;;4824646;29;20216;-41
2023/10/11 14:35:24;;;;;;;9.02;5.30;;;;;;;;;;4824305;29;20215;-39
2023/10/11 14:37:51;;;;;;;10.82;7.03;;;;;;;;;;4824022;29;20622;-48
2023/10/11 14:40:21;;;;;;;11.25;5.68;;;;;;;;;;4822564;29;20204;-45
2023/10/11 14:42:48;;;;;;;12.52;5.53;;;;;;;;;;4822503;29;20272;-47
2023/10/11 14:45:17;;;;;;;8.68;5.13;;;;;;;;;;4824235;29;20232;-44
2023/10/11 14:47:46;;;;;;;12.27;5.65;;;;;;;;;;4824977;29;20212;-44
2023/10/11 14:50:22;;;;;;;10.00;5.18;;;;;;;;;;4824325;29;20222;-44
2023/10/11 14:52:50;;;;;;;11.23;5.35;;;;;;;;;;4825898;29;20212;-49
2023/10/11 14:55:20;;;;;;;9.43;5.47;;;;;;;;;;4827549;29;20211;-48
2023/10/11 14:57:51;;;;;;;11.68;6.65;;;;;;;;;;4828216;29;20209;-53
2023/10/11 15:00:24;;;;;;;10.55;5.47;;;;;;;;;;4827996;29;20302;-47
2023/10/11 15:02:54;;;;;;;12.10;6.43;;;;;;;;;;4827914;29;20231;-46
2023/10/11 15:05:22;;;;;;;25.48;10.50;;;;;;;;;;4826660;29;20216;-45
2023/10/11 15:07:53;;;;;;;19.30;8.93;;;;;;;;;;4824176;29;20228;-45
2023/10/11 15:10:23;;;;;;;17.17;7.00;;;;;;;;;;4828179;29;20216;-45
2023/10/11 15:12:52;;;;;;;10.50;5.35;;;;;;;;;;4836839;29;20223;-47
2023/10/11 15:15:26;;;;;;;12.57;6.05;;;;;;;;;;4829099;29;20212;-47
2023/10/11 15:17:55;;;;;;;11.18;5.95;;;;;;;;;;4827742;29;20288;-47
2023/10/11 15:20:23;;;;;;;18.75;6.65;;;;;;;;;;4826918;29;20208;-45
2023/10/11 15:22:54;;;;;;;13.40;6.07;;;;;;;;;;4826874;29;20223;-48
2023/10/11 15:25:22;;;;;;;14.90;6.63;;;;;;;;;;4828157;29;20213;-46
2023/10/11 15:27:49;;;;;;;10.10;5.63;;;;;;;;;;4827029;29;20215;-47
2023/10/11 15:30:16;;;;;;;13.90;6.55;;;;;;;;;;4827761;29;20208;-46
2023/10/11 15:32:44;;;;;;;30.08;10.57;;;;;;;;;;4809561;29;20237;-48
2023/10/11 15:35:16;;;;;;;21.20;11.23;;;;;;;;;;4823740;29;20678;-49
2023/10/11 15:37:46;;;;;;;22.17;8.13;;;;;;;;;;4826195;29;20204;-46
2023/10/11 15:40:16;;;;;;;20.45;7.53;;;;;;;;;;4822270;29;20212;-42
2023/10/11 15:42:46;;;;;;;11.52;6.03;;;;;;;;;;4825196;29;20220;-44
2023/10/11 15:45:17;;;;;;;26.45;10.82;;;;;;;;;;4828009;29;20831;-37
2023/10/11 15:47:45;;;;;;;16.17;7.45;;;;;;;;;;4827166;29;20219;-43
2023/10/11 15:50:16;;;;;;;19.05;8.10;;;;;;;;;;4827162;29;20204;-42
2023/10/11 15:52:43;;;;;;;14.85;7.10;;;;;;;;;;4826604;29;20257;-42
2023/10/11 15:55:11;;;;;;;10.35;6.00;;;;;;;;;;4826543;29;20291;-46
2023/10/11 15:57:38;;;;;;;12.88;5.78;;;;;;;;;;4826966;29;20218;-38
2023/10/11 16:00:12;;;;;;;23.10;8.13;;;;;;;;;;4827415;29;20280;-41
2023/10/11 16:02:44;;;;;;;13.90;6.93;;;;;;;;;;4826869;29;20222;-39
2023/10/11 16:05:12;;;;;;;12.35;6.45;;;;;;;;;;4837686;29;20225;-39
2023/10/11 16:07:40;;;;;;;12.60;6.60;;;;;;;;;;4844752;29;20238;-41
2023/10/11 16:10:11;;;;;;;14.48;7.72;;;;;;;;;;4829922;29;20669;-38
2023/10/11 16:12:41;;;;;;;14.68;7.95;;;;;;;;;;4826311;29;20263;-35
2023/10/11 16:15:12;;;;;;;30.20;10.63;;;;;;;;;;4837702;29;20208;-39